Time;durP1;ratioP1;P1;durP2;ratioP2;P2;SDS_P1;SDS_P2;PMS_P1;PMS_P2;Temp;Humidity;BMP_temperature;BMP_pressure;BME280_temperature;BME280_humidity;BME280_pressure;Samples;Min_cycle;Max_cycle;Signal;HPM_P1;HPM_P2
2021/07/18 00:01:46;;;;;;;16.60;14.40;;;19.20;99.90;;;;;;5033476;28;20500;-59
2021/07/18 00:04:12;;;;;;;20.80;15.57;;;19.30;99.90;;;;;;5033702;28;20155;-61
2021/07/18 00:06:38;;;;;;;19.17;14.57;;;19.30;99.90;;;;;;5048245;28;20510;-60
2021/07/18 00:09:05;;;;;;;17.25;15.00;;;19.40;99.90;;;;;;5048377;28;20069;-58
2021/07/18 00:11:31;;;;;;;17.90;14.98;;;19.40;99.90;;;;;;5033442;28;20021;-60
2021/07/18 00:13:57;;;;;;;16.77;14.90;;;19.40;99.90;;;;;;5031734;28;20042;-60
2021/07/18 00:16:22;;;;;;;17.10;13.85;;;19.50;99.90;;;;;;5033486;28;20104;-61
2021/07/18 00:18:48;;;;;;;16.17;14.48;;;19.40;99.90;;;;;;5033144;28;20079;-60
2021/07/18 00:21:14;;;;;;;15.57;13.98;;;19.40;99.90;;;;;;5033424;28;20037;-61
2021/07/18 00:23:40;;;;;;;16.05;13.07;;;19.40;99.90;;;;;;5033280;28;20187;-61
2021/07/18 00:26:06;;;;;;;14.63;13.10;;;19.40;99.90;;;;;;5033391;28;20515;-61
2021/07/18 00:28:32;;;;;;;16.38;14.68;;;19.40;99.90;;;;;;5033112;28;20046;-60
2021/07/18 00:30:58;;;;;;;20.52;14.02;;;19.40;99.90;;;;;;5033253;28;20029;-57
2021/07/18 00:33:24;;;;;;;16.50;14.60;;;19.40;99.90;;;;;;5033062;28;20095;-61
2021/07/18 00:35:50;;;;;;;16.85;15.18;;;19.40;99.90;;;;;;5033330;28;20025;-57
2021/07/18 00:38:16;;;;;;;18.52;15.80;;;19.40;99.90;;;;;;5033285;28;20038;-60
2021/07/18 00:40:41;;;;;;;19.52;15.55;;;19.40;99.90;;;;;;5036108;28;20029;-59
2021/07/18 00:43:08;;;;;;;19.13;15.18;;;19.40;99.90;;;;;;5051962;28;20504;-59
2021/07/18 00:45:34;;;;;;;19.17;17.10;;;19.40;99.90;;;;;;5037152;28;20376;-62
2021/07/18 00:47:59;;;;;;;18.85;16.83;;;19.40;99.90;;;;;;5037096;28;20037;-62
2021/07/18 00:50:26;;;;;;;22.52;18.05;;;19.30;99.90;;;;;;5037087;28;20032;-62
2021/07/18 00:52:52;;;;;;;22.15;17.92;;;19.40;99.90;;;;;;5037027;28;20056;-59
2021/07/18 00:55:19;;;;;;;20.67;17.48;;;19.30;99.90;;;;;;5036981;28;20481;-62
2021/07/18 00:57:47;;;;;;;19.73;17.67;;;19.30;99.90;;;;;;5036755;28;20033;-57
2021/07/18 01:00:15;;;;;;;18.23;16.17;;;19.30;99.90;;;;;;5037130;28;20029;-63
2021/07/18 01:02:42;;;;;;;21.95;17.55;;;19.40;99.90;;;;;;5034647;28;20369;-58
2021/07/18 01:05:10;;;;;;;22.08;16.70;;;19.40;99.90;;;;;;5036800;28;20037;-59
2021/07/18 01:07:36;;;;;;;17.38;15.57;;;19.50;99.90;;;;;;5068204;28;20392;-59
2021/07/18 01:10:05;;;;;;;16.65;15.13;;;19.50;99.90;;;;;;5036631;28;20112;-59
2021/07/18 01:12:32;;;;;;;22.35;17.05;;;19.50;99.90;;;;;;5051428;28;20046;-61
2021/07/18 01:14:58;;;;;;;17.30;15.57;;;19.50;99.90;;;;;;5036626;28;20385;-59
2021/07/18 01:17:24;;;;;;;18.30;15.35;;;19.50;99.90;;;;;;5036324;28;20036;-62
2021/07/18 01:19:49;;;;;;;15.88;14.23;;;19.60;99.90;;;;;;5050923;28;20038;-61
2021/07/18 01:22:16;;;;;;;16.38;14.77;;;19.70;99.90;;;;;;5051362;28;20041;-61
2021/07/18 01:24:42;;;;;;;16.83;14.75;;;19.80;99.90;;;;;;5036346;28;20145;-59
2021/07/18 01:27:08;;;;;;;19.20;16.05;;;19.70;99.90;;;;;;5036455;28;20032;-60
2021/07/18 01:29:35;;;;;;;17.58;15.88;;;19.70;99.90;;;;;;5036177;28;20045;-59
2021/07/18 01:32:02;;;;;;;17.67;15.15;;;19.60;99.90;;;;;;5036299;28;20046;-61
2021/07/18 01:34:28;;;;;;;21.55;16.15;;;19.70;99.90;;;;;;5036241;28;20032;-60
2021/07/18 01:36:55;;;;;;;18.75;16.77;;;19.70;99.90;;;;;;5036284;28;20052;-59
2021/07/18 01:39:21;;;;;;;19.15;17.15;;;19.70;99.90;;;;;;5036128;28;20045;-59
2021/07/18 01:41:51;;;;;;;23.92;18.25;;;19.70;99.90;;;;;;5053991;28;20037;-63
2021/07/18 01:44:16;;;;;;;18.35;16.35;;;19.50;99.90;;;;;;5054102;28;20372;-60
2021/07/18 01:46:43;;;;;;;16.65;14.90;;;19.50;99.90;;;;;;5053863;28;20044;-61
2021/07/18 01:49:09;;;;;;;21.20;16.33;;;19.40;99.90;;;;;;5053872;28;20032;-59
2021/07/18 01:51:38;;;;;;;21.15;17.63;;;19.30;99.90;;;;;;5053356;28;20033;-61
2021/07/18 01:54:06;;;;;;;22.63;17.58;;;19.30;99.90;;;;;;5053966;28;20025;-57
2021/07/18 01:56:32;;;;;;;19.67;17.52;;;19.20;99.90;;;;;;5053960;28;20033;-62
2021/07/18 01:58:58;;;;;;;20.33;18.20;;;19.20;99.90;;;;;;5053759;28;20114;-61
2021/07/18 02:01:30;;;;;;;20.88;18.10;;;19.20;99.90;;;;;;5053556;28;20064;-58
2021/07/18 02:03:57;;;;;;;23.70;19.05;;;19.10;99.90;;;;;;5053633;28;20051;-58
2021/07/18 02:06:24;;;;;;;21.30;19.10;;;19.20;99.90;;;;;;5053534;28;20033;-60
2021/07/18 02:08:54;;;;;;;25.20;19.83;;;19.10;99.90;;;;;;5053523;28;20029;-61
2021/07/18 02:11:21;;;;;;;25.23;20.17;;;19.10;99.90;;;;;;5053415;28;20380;-59
2021/07/18 02:13:52;;;;;;;27.40;21.45;;;19.10;99.90;;;;;;5036861;28;20117;-60
2021/07/18 02:16:19;;;;;;;24.92;22.23;;;19.00;99.90;;;;;;5035453;28;20495;-61
2021/07/18 02:18:46;;;;;;;23.63;21.10;;;19.00;99.90;;;;;;5035205;28;20125;-61
2021/07/18 02:21:13;;;;;;;24.95;20.92;;;19.10;99.90;;;;;;5035396;28;20029;-62
2021/07/18 02:23:39;;;;;;;28.08;21.35;;;19.10;99.90;;;;;;5035404;28;20121;-61
2021/07/18 02:26:05;;;;;;;25.23;22.52;;;19.10;99.90;;;;;;5066793;28;20124;-61
2021/07/18 02:28:32;;;;;;;26.77;22.13;;;19.10;99.90;;;;;;5066683;28;20057;-61
2021/07/18 02:30:58;;;;;;;32.30;24.67;;;19.10;99.90;;;;;;5066734;28;20511;-61
2021/07/18 02:33:24;;;;;;;28.55;23.48;;;19.10;99.90;;;;;;5050211;28;20033;-63
2021/07/18 02:35:51;;;;;;;27.08;23.52;;;19.00;99.90;;;;;;5035096;28;20056;-62
2021/07/18 02:38:16;;;;;;;24.33;21.73;;;19.10;99.90;;;;;;5035022;28;20476;-61
2021/07/18 02:40:42;;;;;;;23.80;20.63;;;19.10;99.90;;;;;;5035047;28;20032;-61
2021/07/18 02:43:08;;;;;;;26.13;22.50;;;19.10;99.90;;;;;;5035025;28;20029;-61
2021/07/18 02:45:34;;;;;;;24.50;21.67;;;19.10;99.90;;;;;;5034833;28;20025;-60
2021/07/18 02:47:59;;;;;;;26.23;20.73;;;19.00;99.90;;;;;;5034937;28;20096;-60
2021/07/18 02:50:27;;;;;;;21.27;18.98;;;19.10;99.90;;;;;;5034876;28;20032;-63
2021/07/18 02:52:54;;;;;;;19.27;17.10;;;19.30;99.90;;;;;;5066380;28;20072;-61
2021/07/18 02:55:20;;;;;;;21.27;17.45;;;19.40;99.90;;;;;;5066220;28;20045;-60
2021/07/18 02:57:46;;;;;;;19.83;17.67;;;19.50;99.90;;;;;;5034544;28;20025;-60
2021/07/18 03:00:18;;;;;;;20.13;18.02;;;19.50;99.90;;;;;;5034476;28;20455;-60
2021/07/18 03:02:45;;;;;;;20.30;17.80;;;19.60;99.90;;;;;;5033923;28;20026;-59
2021/07/18 03:05:12;;;;;;;20.20;18.20;;;19.60;99.90;;;;;;5032546;28;20519;-60
2021/07/18 03:07:39;;;;;;;22.77;19.00;;;19.60;99.90;;;;;;5034646;28;20087;-61
2021/07/18 03:10:07;;;;;;;20.85;18.48;;;19.60;99.90;;;;;;5065948;28;20108;-59
2021/07/18 03:12:32;;;;;;;21.20;18.67;;;19.60;99.90;;;;;;5034297;28;20032;-61
2021/07/18 03:15:00;;;;;;;24.73;18.65;;;19.60;99.90;;;;;;5034513;28;20101;-61
2021/07/18 03:17:26;;;;;;;22.90;19.55;;;19.50;99.90;;;;;;5034234;28;20037;-63
2021/07/18 03:19:52;;;;;;;22.05;19.65;;;19.50;99.90;;;;;;5033949;28;20025;-62
2021/07/18 03:22:19;;;;;;;21.02;18.77;;;19.50;99.90;;;;;;5034208;28;20039;-61
2021/07/18 03:24:44;;;;;;;22.83;19.05;;;19.50;99.90;;;;;;5034233;28;20502;-61
2021/07/18 03:27:11;;;;;;;20.55;18.50;;;19.60;99.90;;;;;;5034445;28;20108;-59
2021/07/18 03:29:37;;;;;;;21.00;18.88;;;19.60;99.90;;;;;;5033981;28;20076;-61
2021/07/18 03:32:03;;;;;;;22.48;20.27;;;19.60;99.90;;;;;;5034101;28;20061;-60
2021/07/18 03:34:29;;;;;;;23.58;21.17;;;19.60;99.90;;;;;;5034264;28;20021;-61
2021/07/18 03:36:55;;;;;;;23.13;18.98;;;19.60;99.90;;;;;;5034016;28;20497;-59
2021/07/18 03:39:20;;;;;;;26.52;21.25;;;19.60;99.90;;;;;;5033748;28;20037;-61
2021/07/18 03:41:46;;;;;;;22.60;20.20;;;19.70;99.90;;;;;;5033980;28;20022;-57
2021/07/18 03:44:12;;;;;;;21.77;19.50;;;19.70;99.90;;;;;;5032872;28;20022;-60
2021/07/18 03:46:38;;;;;;;23.52;19.52;;;19.80;99.90;;;;;;5033936;28;20028;-60
2021/07/18 03:49:04;;;;;;;20.98;18.33;;;19.90;99.90;;;;;;5033876;28;20487;-59
2021/07/18 03:51:30;;;;;;;21.63;19.30;;;20.00;99.90;;;;;;5033821;28;20040;-61
2021/07/18 03:53:56;;;;;;;20.73;18.48;;;20.10;99.90;;;;;;5033868;28;20022;-60
2021/07/18 03:56:22;;;;;;;21.38;19.00;;;19.90;99.90;;;;;;5033604;28;20542;-63
2021/07/18 03:58:52;;;;;;;20.70;18.70;;;19.90;99.90;;;;;;5033760;28;20041;-63
2021/07/18 04:01:18;;;;;;;22.48;20.05;;;19.90;99.90;;;;;;5032539;28;20112;-59
2021/07/18 04:03:47;;;;;;;22.02;19.75;;;19.70;99.90;;;;;;5032997;28;20501;-61
2021/07/18 04:06:14;;;;;;;24.15;21.67;;;19.70;99.90;;;;;;5033177;28;20025;-59
2021/07/18 04:08:40;;;;;;;24.25;21.65;;;19.50;99.90;;;;;;5032902;28;20148;-59
2021/07/18 04:11:06;;;;;;;26.27;23.48;;;19.50;99.90;;;;;;5048180;28;20059;-61
2021/07/18 04:27:21;;;;;;;25.02;22.33;;;20.00;99.90;;;;;;5114994;27;20354;-58
2021/07/18 04:29:47;;;;;;;25.00;22.20;;;20.10;99.90;;;;;;5101347;28;20028;-59
2021/07/18 04:32:13;;;;;;;23.85;21.27;;;20.00;99.90;;;;;;5098048;28;20028;-58
2021/07/18 04:34:42;;;;;;;22.83;20.38;;;20.00;99.90;;;;;;5057243;28;20044;-62
2021/07/18 04:37:12;;;;;;;22.88;20.63;;;20.20;99.90;;;;;;5104147;28;20496;-62
2021/07/18 04:39:39;;;;;;;21.55;18.98;;;20.20;99.90;;;;;;5103821;28;20028;-58
2021/07/18 04:42:05;;;;;;;23.33;21.02;;;20.40;99.90;;;;;;5101888;28;20023;-62
2021/07/18 04:44:32;;;;;;;22.70;20.50;;;20.50;99.90;;;;;;5107461;28;20035;-63
2021/07/18 04:46:58;;;;;;;23.38;19.75;;;20.70;99.90;;;;;;5103760;28;20074;-61
2021/07/18 04:49:25;;;;;;;21.55;19.45;;;20.80;99.90;;;;;;5106838;28;20024;-57
2021/07/18 04:51:54;;;;;;;22.65;18.05;;;20.80;99.90;;;;;;5099127;28;20024;-61
2021/07/18 04:54:24;;;;;;;19.23;17.23;;;20.90;99.90;;;;;;5105919;28;20031;-60
2021/07/18 04:56:51;;;;;;;18.73;16.75;;;20.80;99.90;;;;;;5104624;28;20053;-57
2021/07/18 04:59:18;;;;;;;18.00;16.17;;;21.00;99.90;;;;;;5107417;28;20493;-62
2021/07/18 05:01:44;;;;;;;20.17;17.10;;;21.10;99.90;;;;;;5104935;28;20031;-60
2021/07/18 05:04:10;;;;;;;18.45;16.55;;;20.90;99.90;;;;;;5103760;28;20046;-57
2021/07/18 05:06:36;;;;;;;20.27;17.15;;;20.90;99.90;;;;;;5049605;28;20446;-58
2021/07/18 05:09:02;;;;;;;18.13;16.33;;;20.90;99.90;;;;;;5065330;28;20031;-58
2021/07/18 05:11:27;;;;;;;17.00;14.55;;;21.10;99.90;;;;;;5096345;28;20056;-58
2021/07/18 05:13:53;;;;;;;15.10;13.55;;;21.20;99.90;;;;;;5098330;28;20058;-59
2021/07/18 05:16:19;;;;;;;21.60;16.50;;;21.30;99.90;;;;;;5066294;28;20131;-57
2021/07/18 05:18:46;;;;;;;16.45;14.80;;;21.10;99.90;;;;;;5020229;28;20035;-59
2021/07/18 05:21:11;;;;;;;17.67;15.52;;;20.90;99.90;;;;;;5104437;28;20059;-57
2021/07/18 05:23:37;;;;;;;15.63;14.05;;;21.00;99.90;;;;;;5097419;28;20068;-57
2021/07/18 05:26:03;;;;;;;15.43;13.93;;;21.20;99.90;;;;;;5101884;28;20044;-59
2021/07/18 05:28:29;;;;;;;16.42;14.02;;;21.40;99.90;;;;;;5089040;28;20027;-59
2021/07/18 05:30:55;;;;;;;15.45;13.43;;;21.50;99.90;;;;;;5090238;28;20032;-59
2021/07/18 05:33:21;;;;;;;16.35;14.65;;;21.30;99.90;;;;;;5092129;28;20022;-59
2021/07/18 05:35:47;;;;;;;15.52;13.93;;;21.20;99.90;;;;;;5087470;28;20357;-58
2021/07/18 05:38:13;;;;;;;15.00;13.50;;;21.30;99.90;;;;;;5071490;28;20558;-59
2021/07/18 05:40:38;;;;;;;14.98;13.48;;;21.50;99.90;;;;;;5043249;28;20402;-57
2021/07/18 05:43:05;;;;;;;15.93;14.13;;;21.60;99.90;;;;;;5056972;28;20110;-59
2021/07/18 05:45:30;;;;;;;17.95;13.90;;;21.50;99.90;;;;;;5092751;28;20111;-58
2021/07/18 05:47:57;;;;;;;16.95;13.65;;;21.50;99.90;;;;;;5038820;28;20427;-59
2021/07/18 05:50:23;;;;;;;16.48;14.80;;;21.30;99.90;;;;;;5092674;28;20081;-59
2021/07/18 05:52:48;;;;;;;14.93;13.32;;;21.20;99.90;;;;;;5082860;28;20033;-59
2021/07/18 05:55:15;;;;;;;16.30;14.50;;;21.20;99.90;;;;;;5025137;28;20112;-58
2021/07/18 05:57:41;;;;;;;15.80;14.15;;;21.20;99.90;;;;;;5036286;28;20043;-57
2021/07/18 06:00:09;;;;;;;15.30;13.65;;;21.40;99.90;;;;;;5007216;28;20448;-59
2021/07/18 06:02:35;;;;;;;14.27;12.80;;;21.60;99.90;;;;;;4993815;28;20365;-59
2021/07/18 06:05:01;;;;;;;18.50;16.15;;;21.80;99.90;;;;;;4989319;28;20049;-57
2021/07/18 06:07:26;;;;;;;14.68;13.18;;;21.30;99.90;;;;;;4998856;28;20037;-59
2021/07/18 06:09:52;;;;;;;16.52;14.80;;;21.20;99.90;;;;;;5025570;28;20050;-57
2021/07/18 06:12:18;;;;;;;16.88;14.85;;;21.00;99.90;;;;;;5025342;28;20061;-57
2021/07/18 06:14:44;;;;;;;16.38;14.70;;;21.00;99.90;;;;;;5007854;28;20043;-58
2021/07/18 06:17:11;;;;;;;18.23;15.20;;;21.00;99.90;;;;;;4977612;28;20048;-59
2021/07/18 06:19:38;;;;;;;14.73;13.20;;;20.90;99.90;;;;;;5010796;28;20029;-58
2021/07/18 06:22:05;;;;;;;13.60;12.25;;;21.00;99.90;;;;;;5028811;28;20033;-58
2021/07/18 06:24:30;;;;;;;16.77;14.90;;;21.30;99.90;;;;;;5029591;28;20133;-57
2021/07/18 06:26:56;;;;;;;16.52;14.90;;;21.10;99.90;;;;;;4973755;28;20041;-59
2021/07/18 06:29:22;;;;;;;18.98;15.55;;;20.90;99.90;;;;;;5020693;28;20103;-59
2021/07/18 06:31:48;;;;;;;19.38;17.48;;;20.90;99.90;;;;;;5023953;28;20467;-59
2021/07/18 06:34:14;;;;;;;21.05;18.98;;;20.70;99.90;;;;;;5088789;28;20359;-58
2021/07/18 06:36:39;;;;;;;22.50;20.23;;;20.90;99.90;;;;;;5090426;28;20044;-59
2021/07/18 06:39:05;;;;;;;24.33;22.00;;;20.60;99.90;;;;;;5035750;28;20468;-59
2021/07/18 06:41:50;;;;;;;25.90;23.30;;;20.50;99.90;;;;;;5023474;28;20056;-59
2021/07/18 06:44:16;;;;;;;27.45;24.52;;;20.30;99.90;;;;;;5040073;28;20047;-61
2021/07/18 06:46:42;;;;;;;26.92;24.13;;;20.20;99.90;;;;;;5086410;28;20036;-61
2021/07/18 06:49:08;;;;;;;27.83;24.67;;;20.50;99.90;;;;;;5047906;28;20048;-61
2021/07/18 06:51:33;;;;;;;26.27;23.15;;;20.80;99.90;;;;;;5085982;28;20044;-62
2021/07/18 06:53:59;;;;;;;25.48;23.00;;;21.00;99.90;;;;;;5090469;28;20133;-60
2021/07/18 06:56:25;;;;;;;24.15;21.75;;;21.00;99.90;;;;;;5054105;28;20089;-61
2021/07/18 06:58:51;;;;;;;25.27;22.60;;;21.20;99.90;;;;;;5035438;28;20483;-61
2021/07/18 07:01:17;;;;;;;26.05;23.33;;;21.00;99.90;;;;;;5083489;28;20043;-60
2021/07/18 07:03:43;;;;;;;24.17;21.75;;;21.00;99.90;;;;;;5087029;28;20027;-59
2021/07/18 07:06:08;;;;;;;22.23;19.90;;;21.30;99.90;;;;;;5086613;28;20047;-61
2021/07/18 07:08:34;;;;;;;24.30;21.88;;;21.50;99.90;;;;;;5085327;28;20020;-59
2021/07/18 07:11:00;;;;;;;22.85;20.45;;;22.00;99.90;;;;;;5087205;28;20387;-60
2021/07/18 07:13:26;;;;;;;20.77;18.88;;;22.40;99.90;;;;;;5081386;28;20032;-62
2021/07/18 07:15:52;;;;;;;22.25;19.98;;;23.20;99.90;;;;;;5082068;28;20145;-62
2021/07/18 07:18:18;;;;;;;20.90;18.95;;;23.40;99.90;;;;;;4991218;28;20494;-60
2021/07/18 07:20:43;;;;;;;21.83;19.58;;;23.50;99.90;;;;;;5086375;28;20029;-62
2021/07/18 07:23:09;;;;;;;22.90;20.70;;;23.50;99.90;;;;;;5044873;28;20395;-59
2021/07/18 07:25:35;;;;;;;22.77;20.63;;;23.10;99.90;;;;;;5003816;28;20037;-61
2021/07/18 07:28:01;;;;;;;22.02;19.95;;;23.00;99.90;;;;;;5037247;28;20041;-59
2021/07/18 07:30:27;;;;;;;23.25;20.95;;;23.40;99.90;;;;;;5072764;28;20119;-63
2021/07/18 07:32:53;;;;;;;21.55;19.33;;;23.90;99.90;;;;;;5037523;28;20047;-61
2021/07/18 07:35:18;;;;;;;22.73;20.35;;;24.10;99.90;;;;;;5037172;28;20497;-63
2021/07/18 07:37:45;;;;;;;21.85;19.70;;;24.30;99.90;;;;;;5037210;28;20036;-60
2021/07/18 07:40:14;;;;;;;20.83;18.73;;;24.20;99.90;;;;;;5072779;28;20025;-61
2021/07/18 07:42:40;;;;;;;21.38;19.15;;;24.30;99.90;;;;;;5074249;28;20095;-60
2021/07/18 07:45:09;;;;;;;21.42;19.27;;;24.20;99.90;;;;;;5083044;28;20028;-62
2021/07/18 07:47:36;;;;;;;23.80;21.20;;;24.30;99.90;;;;;;5053996;28;20044;-61
2021/07/18 07:50:03;;;;;;;22.73;20.30;;;24.30;99.90;;;;;;5072282;28;20551;-60
2021/07/18 07:52:28;;;;;;;23.92;21.42;;;24.60;99.90;;;;;;5072557;28;20050;-61
2021/07/18 07:54:54;;;;;;;25.10;22.35;;;24.60;99.90;;;;;;5072279;28;20111;-60
2021/07/18 07:57:20;;;;;;;24.55;22.02;;;25.50;99.90;;;;;;5020602;28;20033;-60
2021/07/18 07:59:46;;;;;;;23.35;20.95;;;26.10;99.90;;;;;;4987800;28;20047;-60
2021/07/18 08:02:11;;;;;;;23.80;21.40;;;25.90;99.90;;;;;;5072329;28;20020;-60
2021/07/18 08:04:37;;;;;;;23.38;20.98;;;26.70;99.90;;;;;;5072247;28;20406;-62
2021/07/18 08:07:03;;;;;;;24.00;21.60;;;26.70;98.50;;;;;;5023800;28;20036;-61
2021/07/18 08:09:29;;;;;;;24.17;21.38;;;26.70;99.50;;;;;;5093204;28;20101;-60
2021/07/18 08:11:55;;;;;;;22.73;20.52;;;26.60;99.90;;;;;;5093533;28;20413;-60
2021/07/18 08:14:21;;;;;;;24.63;22.23;;;26.90;99.20;;;;;;5093560;28;20081;-59
2021/07/18 08:16:47;;;;;;;23.48;21.08;;;27.30;99.30;;;;;;5024856;28;20052;-60
2021/07/18 08:19:13;;;;;;;25.10;22.45;;;27.10;97.30;;;;;;5041236;28;20043;-60
2021/07/18 08:21:39;;;;;;;22.35;19.95;;;27.10;96.90;;;;;;5092548;28;20085;-62
2021/07/18 08:24:05;;;;;;;23.67;21.40;;;28.10;96.60;;;;;;5087831;28;20429;-63
2021/07/18 08:26:30;;;;;;;23.95;19.13;;;28.30;95.70;;;;;;5039108;28;20040;-58
2021/07/18 08:28:57;;;;;;;22.35;20.27;;;28.30;93.60;;;;;;5040306;28;20494;-58
2021/07/18 08:31:23;;;;;;;20.52;18.52;;;28.70;94.70;;;;;;5093249;28;20028;-59
2021/07/18 08:33:48;;;;;;;20.50;18.50;;;30.10;93.10;;;;;;5089300;28;20020;-60
2021/07/18 08:36:14;;;;;;;20.05;17.98;;;30.70;91.90;;;;;;5077809;28;20036;-63
2021/07/18 08:38:40;;;;;;;18.92;17.02;;;32.00;97.80;;;;;;5090489;28;20024;-62
2021/07/18 08:41:05;;;;;;;18.15;16.25;;;32.70;93.00;;;;;;5093276;28;20049;-61
2021/07/18 08:43:32;;;;;;;17.58;15.88;;;32.90;93.10;;;;;;5078574;28;20035;-61
2021/07/18 08:45:59;;;;;;;18.52;16.70;;;33.20;91.80;;;;;;5073053;28;20025;-59
2021/07/18 08:48:24;;;;;;;17.38;15.70;;;33.30;93.70;;;;;;5072914;28;20028;-57
2021/07/18 08:50:51;;;;;;;16.95;15.45;;;32.70;81.30;;;;;;5037968;28;20029;-61
2021/07/18 08:53:17;;;;;;;16.98;15.27;;;33.20;90.10;;;;;;5072960;28;20482;-58
2021/07/18 08:55:43;;;;;;;20.25;17.70;;;33.70;78.90;;;;;;5073095;28;20116;-60
2021/07/18 08:58:11;;;;;;;20.63;18.60;;;34.00;80.80;;;;;;5072948;28;20061;-62
2021/07/18 09:00:37;;;;;;;19.20;17.20;;;32.60;78.00;;;;;;5072962;28;20035;-61
2021/07/18 09:03:03;;;;;;;20.77;18.70;;;32.00;91.20;;;;;;5075565;28;20103;-63
2021/07/18 09:05:29;;;;;;;21.75;19.55;;;31.40;81.10;;;;;;5041393;28;20031;-61
2021/07/18 09:07:56;;;;;;;22.13;19.98;;;32.90;80.90;;;;;;5076754;28;20434;-62
2021/07/18 09:10:27;;;;;;;21.25;19.25;;;33.00;80.20;;;;;;5076480;28;20495;-60
2021/07/18 09:13:03;;;;;;;21.20;17.77;;;33.30;78.30;;;;;;5058160;28;20029;-59
2021/07/18 09:15:40;;;;;;;21.70;19.45;;;32.90;78.10;;;;;;5076322;28;20033;-61
2021/07/18 09:18:08;;;;;;;19.00;17.17;;;;;;;;;;5075437;28;20480;-58
2021/07/18 09:20:48;;;;;;;20.00;18.27;;;34.50;74.70;;;;;;5076300;28;20025;-62
2021/07/18 09:23:28;;;;;;;21.05;19.25;;;32.20;78.10;;;;;;5073353;28;20111;-60
2021/07/18 09:26:19;;;;;;;20.52;18.63;;;31.60;78.40;;;;;;5075972;28;20051;-61
2021/07/18 09:28:44;;;;;;;20.65;18.65;;;31.80;78.90;;;;;;5076190;28;20032;-59
2021/07/18 09:31:35;;;;;;;20.00;18.20;;;31.00;80.30;;;;;;4991860;28;20036;-60
2021/07/18 09:34:21;;;;;;;20.23;18.33;;;30.90;79.90;;;;;;4994721;28;20030;-59
2021/07/18 09:36:47;;;;;;;15.90;14.50;;;32.10;77.90;;;;;;4994810;28;20034;-61
2021/07/18 09:39:13;;;;;;;17.52;15.82;;;34.40;77.50;;;;;;4994766;28;20629;-62
2021/07/18 09:41:42;;;;;;;16.88;15.30;;;35.00;73.10;;;;;;4994616;28;20034;-62
2021/07/18 09:44:08;;;;;;;17.98;16.17;;;35.90;71.50;;;;;;4994513;28;20026;-60
2021/07/18 09:46:34;;;;;;;17.13;15.60;;;35.50;69.10;;;;;;4978345;28;20031;-60
2021/07/18 09:49:03;;;;;;;15.65;14.25;;;35.50;70.60;;;;;;4994765;28;20035;-64
2021/07/18 09:51:31;;;;;;;16.40;14.90;;;35.00;68.90;;;;;;4994503;28;20088;-65
2021/07/18 09:54:13;;;;;;;16.17;14.68;;;34.60;71.00;;;;;;4994468;28;20436;-61
2021/07/18 09:56:40;;;;;;;15.32;13.82;;;36.10;68.40;;;;;;4994334;28;20481;-62
2021/07/18 09:59:06;;;;;;;14.63;13.32;;;37.70;66.50;;;;;;4994552;28;20101;-58
2021/07/18 10:01:33;;;;;;;15.73;14.23;;;;;;;;;;4994404;28;20030;-62
2021/07/18 10:03:59;;;;;;;13.68;12.45;;;;;;;;;;4994164;28;20041;-62
2021/07/18 10:06:27;;;;;;;17.88;13.75;;;37.60;63.80;;;;;;4994154;28;20031;-61
2021/07/18 10:08:55;;;;;;;13.95;12.60;;;37.20;64.40;;;;;;4993627;28;20436;-61
2021/07/18 10:11:24;;;;;;;14.38;13.07;;;38.20;63.60;;;;;;5048120;28;20072;-60
2021/07/18 10:13:51;;;;;;;15.15;13.43;;;38.60;63.70;;;;;;5075479;28;20059;-63
2021/07/18 10:16:19;;;;;;;14.15;12.85;;;39.60;63.40;;;;;;5075243;28;20033;-61
2021/07/18 10:18:48;;;;;;;15.43;13.70;;;38.80;61.00;;;;;;5074572;28;20024;-60
2021/07/18 10:21:20;;;;;;;15.30;13.70;;;38.40;60.70;;;;;;5057425;28;20028;-58
2021/07/18 10:23:49;;;;;;;15.45;13.77;;;37.70;61.70;;;;;;5075142;28;20379;-62
2021/07/18 10:26:27;;;;;;;15.35;13.95;;;36.10;64.00;;;;;;5039902;28;20071;-62
2021/07/18 10:28:54;;;;;;;11.25;10.15;;;37.00;66.10;;;;;;5075097;28;20024;-60
2021/07/18 10:31:44;;;;;;;11.70;10.55;;;40.00;60.70;;;;;;5075116;28;20024;-60
2021/07/18 10:34:10;;;;;;;13.20;11.85;;;;;;;;;;5075141;28;20033;-60
2021/07/18 10:36:36;;;;;;;14.95;12.80;;;43.50;59.90;;;;;;5074803;28;20113;-62
2021/07/18 10:39:32;;;;;;;13.30;12.00;;;38.40;57.00;;;;;;5039749;28;20047;-61
2021/07/18 10:42:01;;;;;;;15.30;13.80;;;36.70;61.50;;;;;;5074764;28;20050;-63
2021/07/18 10:44:41;;;;;;;12.00;10.98;;;36.80;65.10;;;;;;5074767;28;20039;-60
2021/07/18 10:47:06;;;;;;;12.18;10.98;;;39.00;70.30;;;;;;5039626;28;20391;-61
2021/07/18 10:49:54;;;;;;;11.52;10.45;;;42.10;56.10;;;;;;5074681;28;20028;-60
2021/07/18 10:52:29;;;;;;;12.70;11.50;;;43.50;55.30;;;;;;5039415;28;20036;-65
2021/07/18 10:54:55;;;;;;;12.15;10.88;;;44.30;51.60;;;;;;5074490;28;20371;-61
2021/07/18 10:57:32;;;;;;;14.05;12.65;;;44.00;51.90;;;;;;5074635;28;20024;-62
2021/07/18 11:00:22;;;;;;;13.23;11.93;;;42.30;54.00;;;;;;5074571;28;20108;-61
2021/07/18 11:03:02;;;;;;;12.73;11.52;;;38.50;58.00;;;;;;5056052;28;20379;-58
2021/07/18 11:05:44;;;;;;;13.88;11.95;;;36.50;61.30;;;;;;5039257;28;20116;-59
2021/07/18 11:08:10;;;;;;;15.50;14.00;;;35.90;63.10;;;;;;5039117;28;20491;-62
2021/07/18 11:10:55;;;;;;;17.17;15.43;;;34.80;64.90;;;;;;5074184;28;20420;-59
2021/07/18 11:13:22;;;;;;;17.48;15.77;;;32.10;70.70;;;;;;5074466;28;20020;-60
2021/07/18 11:15:49;;;;;;;17.35;15.85;;;30.90;75.10;;;;;;5074385;28;20083;-61
2021/07/18 11:18:37;;;;;;;17.40;15.73;;;30.70;77.00;;;;;;5037973;28;20048;-60
2021/07/18 11:21:03;;;;;;;16.83;15.18;;;30.20;78.50;;;;;;5074132;28;20364;-62
2021/07/18 11:23:34;;;;;;;16.55;14.85;;;31.80;76.60;;;;;;5073967;28;20073;-64
2021/07/18 11:26:03;;;;;;;17.20;15.43;;;31.10;74.70;;;;;;5073257;28;20068;-64
2021/07/18 11:28:50;;;;;;;16.50;14.93;;;30.00;76.30;;;;;;5073962;28;20029;-59
2021/07/18 11:31:23;;;;;;;16.88;15.23;;;30.40;77.20;;;;;;5073331;28;20483;-62
2021/07/18 11:34:04;;;;;;;15.23;13.73;;;29.70;79.00;;;;;;5073936;28;20066;-63
2021/07/18 11:36:33;;;;;;;17.42;15.75;;;29.10;80.40;;;;;;5055137;28;20468;-61
2021/07/18 11:39:01;;;;;;;17.75;15.93;;;28.60;83.90;;;;;;5073827;28;20028;-60
2021/07/18 11:41:29;;;;;;;16.38;14.73;;;28.30;84.30;;;;;;5073701;28;20020;-59
2021/07/18 11:44:02;;;;;;;16.45;14.82;;;28.20;85.90;;;;;;5073725;28;20082;-63
2021/07/18 11:46:41;;;;;;;16.63;14.93;;;27.80;84.70;;;;;;5070671;28;20028;-60
2021/07/18 11:49:09;;;;;;;17.90;16.00;;;28.00;85.90;;;;;;5072277;28;20020;-59
2021/07/18 11:51:41;;;;;;;17.55;15.10;;;28.00;88.00;;;;;;5055409;28;20364;-60
2021/07/18 11:54:07;;;;;;;19.00;16.42;;;28.00;86.00;;;;;;5073515;28;20055;-59
2021/07/18 11:56:41;;;;;;;18.88;16.00;;;28.50;86.50;;;;;;5073590;28;20032;-58
2021/07/18 11:59:09;;;;;;;15.30;13.90;;;28.70;85.40;;;;;;5073632;28;20035;-60
2021/07/18 12:01:38;;;;;;;18.25;16.40;;;30.10;80.20;;;;;;5073719;28;20103;-60
2021/07/18 12:04:07;;;;;;;15.45;13.90;;;31.50;78.30;;;;;;5073522;28;20024;-61
2021/07/18 12:06:33;;;;;;;14.60;12.82;;;35.60;70.40;;;;;;5073502;28;20043;-63
2021/07/18 12:09:20;;;;;;;16.00;14.30;;;36.70;66.90;;;;;;5073566;28;20059;-58
2021/07/18 12:11:51;;;;;;;15.48;13.95;;;36.50;65.70;;;;;;5073692;28;20032;-62
2021/07/18 12:14:18;;;;;;;15.82;14.23;;;38.30;64.40;;;;;;5073125;28;20037;-61
2021/07/18 12:16:45;;;;;;;15.57;13.95;;;39.00;62.00;;;;;;5073254;28;20119;-61
2021/07/18 12:19:12;;;;;;;18.33;16.45;;;36.10;64.00;;;;;;5073040;28;20021;-63
2021/07/18 12:21:40;;;;;;;16.23;14.63;;;37.00;63.30;;;;;;5073455;28;20046;-63
2021/07/18 12:24:27;;;;;;;17.67;15.98;;;36.10;63.30;;;;;;5085991;28;20028;-62
2021/07/18 12:26:58;;;;;;;18.25;16.42;;;35.80;66.20;;;;;;5082078;28;20245;-61
2021/07/18 12:29:26;;;;;;;18.33;16.48;;;36.60;65.80;;;;;;5079142;28;20025;-63
2021/07/18 12:31:52;;;;;;;18.70;17.02;;;38.30;62.00;;;;;;5080629;28;20036;-63
2021/07/18 12:34:24;;;;;;;18.50;16.48;;;35.60;64.70;;;;;;5084125;28;20012;-64
2021/07/18 12:36:55;;;;;;;17.08;15.48;;;36.30;63.40;;;;;;5082085;28;20031;-63
2021/07/18 12:39:23;;;;;;;;;;;37.60;62.60;;;;;;5086572;28;20020;-58
2021/07/18 12:41:50;;;;;;;17.25;15.65;;;38.80;59.70;;;;;;5088999;28;19912;-62
2021/07/18 12:44:19;;;;;;;17.55;15.85;;;38.10;60.10;;;;;;5085419;28;20021;-62
2021/07/18 12:46:46;;;;;;;15.32;13.90;;;39.60;60.20;;;;;;5086240;28;20099;-62